Time;durP1;ratioP1;P1;durP2;ratioP2;P2;SDS_P1;SDS_P2;PMS_P1;PMS_P2;Temp;Humidity;BMP_temperature;BMP_pressure;BME280_temperature;BME280_humidity;BME280_pressure;Samples;Min_cycle;Max_cycle;Signal;HPM_P1;HPM_P2
2023/01/14 00:02:32;;;;;;;;;;;;;;;6.98;57.47;101209.97;4980824;28;19914;-82
2023/01/14 00:05:17;;;;;;;;;;;;;;;6.86;57.46;101206.78;4966827;29;19915;-82
2023/01/14 00:08:02;;;;;;;;;;;;;;;6.69;57.85;101209.84;4963010;28;19914;-82
2023/01/14 00:10:46;;;;;;;;;;;;;;;6.50;58.01;101214.25;4988398;28;19914;-82
2023/01/14 00:13:36;;;;;;;;;;;;;;;6.65;58.36;101214.19;4965173;28;19914;-82
2023/01/14 00:16:20;;;;;;;;;;;;;;;6.80;57.36;101216.81;4953664;29;19914;-83
2023/01/14 00:19:05;;;;;;;;;;;;;;;6.50;57.86;101208.84;4956596;29;19915;-82
2023/01/14 00:21:50;;;;;;;;;;;;;;;6.73;57.52;101210.09;4967731;28;19918;-83
2023/01/14 00:24:35;;;;;;;;;;;;;;;6.59;57.87;101215.28;4971553;28;19914;-82
2023/01/14 00:27:20;;;;;;;;;;;;;;;6.49;58.65;101207.22;4971599;28;19914;-82
2023/01/14 00:30:05;;;;;;;;;;;;;;;6.07;58.65;101199.50;4972326;28;19914;-82
2023/01/14 00:32:50;;;;;;;;;;;;;;;6.25;58.45;101195.41;4970110;28;19922;-82
2023/01/14 00:35:36;;;;;;;;;;;;;;;6.41;58.01;101197.78;4971049;28;19914;-82
2023/01/14 00:38:21;;;;;;;;;;;;;;;6.47;58.20;101198.56;4970805;29;19914;-82
2023/01/14 00:41:16;;;;;;;;;;;;;;;6.35;57.88;101195.38;4971470;28;19915;-82
2023/01/14 00:44:03;;;;;;;;;;;;;;;6.58;57.45;101193.94;4973503;28;19915;-82
2023/01/14 00:46:48;;;;;;;;;;;;;;;6.65;57.04;101197.97;4969965;28;19914;-82
2023/01/14 00:49:32;;;;;;;;;;;;;;;6.32;57.60;101209.44;4969457;28;19915;-82
2023/01/14 00:52:17;;;;;;;;;;;;;;;6.33;57.86;101211.06;4969321;29;19918;-82
2023/01/14 00:55:01;;;;;;;;;;;;;;;6.21;57.99;101208.66;4971715;28;19915;-84
2023/01/14 00:57:50;;;;;;;;;;;;;;;6.11;57.94;101199.75;4969781;28;19918;-82
2023/01/14 01:00:34;;;;;;;;;;;;;;;6.45;58.34;101198.03;4975338;28;19914;-82
2023/01/14 01:03:19;;;;;;;;;;;;;;;6.62;57.69;101216.63;4970289;29;19923;-82
2023/01/14 01:06:03;;;;;;;;;;;;;;;6.72;58.48;101228.19;4969874;28;19914;-83
2023/01/14 01:08:49;;;;;;;;;;;;;;;6.60;57.01;101227.72;4972843;28;19914;-82
2023/01/14 01:11:33;;;;;;;;;;;;;;;6.71;57.44;101237.38;4968738;28;19918;-82
2023/01/14 01:14:19;;;;;;;;;;;;;;;6.60;57.66;101235.81;4957977;29;19914;-82
2023/01/14 01:17:03;;;;;;;;;;;;;;;6.54;57.47;101220.72;4952190;29;19915;-85
2023/01/14 01:19:50;;;;;;;;;;;;;;;6.56;57.25;101218.53;4952972;29;19915;-83
2023/01/14 01:22:35;;;;;;;;;;;;;;;6.49;57.31;101223.44;4950276;29;19915;-82
2023/01/14 01:25:19;;;;;;;;;;;;;;;6.34;57.12;101220.78;4968607;28;20361;-82
2023/01/14 01:28:05;;;;;;;;;;;;;;;6.28;57.74;101211.88;4971230;28;19915;-82
2023/01/14 01:30:49;;;;;;;;;;;;;;;5.53;59.69;101215.44;4969706;28;19918;-82
2023/01/14 01:33:34;;;;;;;;;;;;;;;5.65;59.64;101217.84;4973282;28;19918;-83
2023/01/14 01:36:20;;;;;;;;;;;;;;;6.41;57.80;101216.69;4968433;28;19914;-82
2023/01/14 01:39:05;;;;;;;;;;;;;;;6.55;57.27;101210.72;4968882;28;19914;-82
2023/01/14 01:41:49;;;;;;;;;;;;;;;6.38;56.68;101198.34;4967920;28;19915;-85
2023/01/14 01:44:34;;;;;;;;;;;;;;;6.28;56.06;101190.28;4970368;29;19914;-83
2023/01/14 01:47:19;;;;;;;;;;;;;;;6.13;57.06;101198.41;4963170;28;19914;-83
2023/01/14 01:50:03;;;;;;;;;;;;;;;6.03;57.63;101203.03;4964977;29;19914;-84
2023/01/14 01:52:49;;;;;;;;;;;;;;;5.81;57.81;101212.19;4965510;29;19918;-83
2023/01/14 01:55:35;;;;;;;;;;;;;;;6.02;59.16;101213.00;4965231;28;19914;-84
2023/01/14 01:58:21;;;;;;;;;;;;;;;5.93;57.56;101212.75;4970641;28;19914;-84
2023/01/14 02:01:06;;;;;;;;;;;;;;;6.01;57.72;101220.28;4966056;29;19914;-83
2023/01/14 02:03:51;;;;;;;;;;;;;;;6.35;56.69;101222.38;4966772;28;20385;-83
2023/01/14 02:06:36;;;;;;;;;;;;;;;6.17;57.13;101217.56;4959702;28;19914;-82
2023/01/14 02:09:20;;;;;;;;;;;;;;;6.21;57.24;101226.72;4970737;28;19918;-82
2023/01/14 02:12:23;;;;;;;;;;;;;;;6.19;57.31;101240.53;4969093;29;19919;-82
2023/01/14 02:15:27;;;;;;;;;;;;;;;6.70;55.80;101246.59;4970569;29;19914;-85
2023/01/14 02:18:30;;;;;;;;;;;;;;;6.47;55.60;101244.50;4990101;28;19914;-85
2023/01/14 02:21:20;;;;;;;;;;;;;;;6.31;56.09;101248.31;4976457;28;19915;-85
2023/01/14 02:24:08;;;;;;;;;;;;;;;6.68;55.95;101243.34;4976719;29;19914;-85
2023/01/14 02:27:01;;;;;;;;;;;;;;;6.64;55.35;101253.09;4973555;28;19914;-84
2023/01/14 02:30:00;;;;;;;;;;;;;;;5.79;57.59;101245.94;4960078;29;19915;-83
2023/01/14 02:32:55;;;;;;;;;;;;;;;5.58;58.67;101234.31;4966758;28;19918;-83
2023/01/14 02:35:43;;;;;;;;;;;;;;;5.89;57.81;101225.16;4961301;28;19918;-83
2023/01/14 02:38:48;;;;;;;;;;;;;;;5.80;57.92;101231.34;4966728;29;19915;-83
2023/01/14 02:45:11;;;;;;;;;;;;;;;6.29;56.30;101229.72;4967840;29;19919;-83
2023/01/14 02:47:57;;;;;;;;;;;;;;;4.92;59.74;101226.13;4953511;29;19915;-83
2023/01/14 02:50:41;;;;;;;;;;;;;;;5.77;58.14;101232.72;4961526;29;19915;-83
2023/01/14 02:53:27;;;;;;;;;;;;;;;6.28;56.73;101228.09;4981814;28;19918;-83
2023/01/14 02:56:12;;;;;;;;;;;;;;;6.51;56.12;101229.34;4965750;28;19914;-83
2023/01/14 02:59:00;;;;;;;;;;;;;;;6.28;56.85;101238.06;4965860;29;20397;-83
2023/01/14 03:02:06;;;;;;;;;;;;;;;5.83;57.16;101234.31;4965213;29;19914;-82
2023/01/14 03:05:10;;;;;;;;;;;;;;;6.03;57.40;101236.22;4965101;28;19915;-82
2023/01/14 03:07:58;;;;;;;;;;;;;;;5.91;57.63;101241.91;4965218;29;19933;-84
2023/01/14 03:10:47;;;;;;;;;;;;;;;5.54;57.41;101246.72;4966314;28;19915;-83
2023/01/14 03:13:45;;;;;;;;;;;;;;;5.33;59.25;101253.19;4965416;29;19918;-84
2023/01/14 03:16:41;;;;;;;;;;;;;;;5.79;58.93;101256.72;4964717;28;19914;-83
2023/01/14 03:19:34;;;;;;;;;;;;;;;5.51;58.65;101258.84;4976998;28;19914;-83
2023/01/14 03:22:20;;;;;;;;;;;;;;;3.76;63.32;101258.56;4982381;28;19914;-83
2023/01/14 03:25:06;;;;;;;;;;;;;;;3.58;64.64;101242.00;4981628;28;19914;-83
2023/01/14 03:27:52;;;;;;;;;;;;;;;4.07;64.41;101250.72;4962178;28;19914;-82
2023/01/14 03:30:42;;;;;;;;;;;;;;;4.68;62.26;101238.41;4963036;29;19910;-83
2023/01/14 03:33:30;;;;;;;;;;;;;;;4.23;63.09;101239.78;4962510;29;19918;-82
2023/01/14 03:36:16;;;;;;;;;;;;;;;4.68;61.94;101257.25;4965944;28;19914;-83
2023/01/14 03:39:04;;;;;;;;;;;;;;;4.66;62.02;101268.31;4971257;28;19918;-84
2023/01/14 03:44:59;;;;;;;;;;;;;;;5.18;60.48;101274.72;4985357;28;19922;-83
2023/01/14 03:47:44;;;;;;;;;;;;;;;5.13;60.16;101262.00;4964766;28;19915;-84
2023/01/14 03:50:34;;;;;;;;;;;;;;;4.54;61.68;101250.72;4965923;28;19914;-84
2023/01/14 03:53:23;;;;;;;;;;;;;;;4.61;61.88;101272.88;4965617;29;19918;-83
2023/01/14 03:56:28;;;;;;;;;;;;;;;5.23;60.32;101282.81;4965275;28;19915;-83
2023/01/14 03:59:17;;;;;;;;;;;;;;;5.22;59.30;101262.31;4971368;28;19914;-84
2023/01/14 04:02:03;;;;;;;;;;;;;;;4.93;60.31;101270.84;4976939;28;19914;-84
2023/01/14 04:04:49;;;;;;;;;;;;;;;3.96;64.41;101274.06;4973397;28;19914;-84
2023/01/14 04:07:33;;;;;;;;;;;;;;;4.48;63.29;101273.31;4972806;28;19914;-84
2023/01/14 04:10:18;;;;;;;;;;;;;;;3.92;64.42;101277.50;4975904;28;19914;-84
2023/01/14 04:16:06;;;;;;;;;;;;;;;3.79;65.85;101276.88;4963776;28;19914;-84
2023/01/14 04:18:51;;;;;;;;;;;;;;;4.13;63.86;101281.97;4967791;29;19914;-81
2023/01/14 04:21:35;;;;;;;;;;;;;;;4.89;61.92;101277.00;4980413;28;19915;-81
2023/01/14 04:24:20;;;;;;;;;;;;;;;4.97;61.73;101280.03;4966099;29;19914;-81
2023/01/14 04:27:04;;;;;;;;;;;;;;;4.89;61.95;101299.38;4979307;28;19933;-81
2023/01/14 04:29:49;;;;;;;;;;;;;;;4.52;59.85;101304.06;4967133;28;19914;-80
2023/01/14 04:32:33;;;;;;;;;;;;;;;4.52;60.22;101318.31;4965673;29;19919;-81
2023/01/14 04:35:18;;;;;;;;;;;;;;;4.63;60.95;101308.41;4968151;28;20378;-81
2023/01/14 04:38:04;;;;;;;;;;;;;;;4.79;60.74;101315.50;4957076;29;20305;-81
2023/01/14 04:40:49;;;;;;;;;;;;;;;4.88;60.39;101305.84;4964530;29;19914;-81
2023/01/14 04:43:34;;;;;;;;;;;;;;;5.21;60.21;101310.03;4962022;28;19915;-80
2023/01/14 04:46:18;;;;;;;;;;;;;;;5.18;59.56;101327.53;4961086;28;19922;-80
2023/01/14 04:49:03;;;;;;;;;;;;;;;4.83;60.01;101313.91;4978399;28;19914;-80
2023/01/14 04:51:47;;;;;;;;;;;;;;;5.36;58.33;101312.75;4966078;29;19918;-81
2023/01/14 04:54:32;;;;;;;;;;;;;;;5.07;60.18;101317.81;4981498;28;19914;-81
2023/01/14 04:57:17;;;;;;;;;;;;;;;4.87;60.39;101325.00;4966159;28;20294;-81
2023/01/14 05:00:01;;;;;;;;;;;;;;;4.88;59.95;101326.59;4955349;29;19914;-83
2023/01/14 05:02:45;;;;;;;;;;;;;;;4.81;59.69;101332.22;4953502;29;19915;-82
2023/01/14 05:05:30;;;;;;;;;;;;;;;4.56;59.95;101327.50;4968278;28;19918;-81
2023/01/14 05:08:15;;;;;;;;;;;;;;;4.67;60.45;101331.09;4971496;28;19914;-81
2023/01/14 05:10:59;;;;;;;;;;;;;;;5.25;59.49;101338.06;4983988;28;19915;-81
2023/01/14 05:13:44;;;;;;;;;;;;;;;5.56;58.11;101344.38;4970873;28;19919;-83
2023/01/14 05:16:28;;;;;;;;;;;;;;;5.20;58.23;101334.53;4966188;28;19915;-83
2023/01/14 05:19:13;;;;;;;;;;;;;;;5.03;59.91;101334.75;4962180;29;19914;-83
2023/01/14 05:21:58;;;;;;;;;;;;;;;4.64;60.69;101343.16;4959139;29;19915;-82
2023/01/14 05:24:42;;;;;;;;;;;;;;;4.41;60.56;101342.75;4988329;28;19914;-81
2023/01/14 05:27:27;;;;;;;;;;;;;;;4.41;61.58;101340.88;4980638;28;19914;-81
2023/01/14 05:30:11;;;;;;;;;;;;;;;4.62;60.68;101347.22;4973229;28;19914;-81
2023/01/14 05:32:56;;;;;;;;;;;;;;;4.91;60.25;101359.22;4948563;29;19918;-81
2023/01/14 05:35:40;;;;;;;;;;;;;;;5.05;59.84;101371.16;4963750;28;19919;-81
2023/01/14 05:38:25;;;;;;;;;;;;;;;4.91;60.13;101370.00;4969910;28;19914;-82
2023/01/14 05:41:13;;;;;;;;;;;;;;;5.11;59.43;101378.19;4968192;29;19919;-81
2023/01/14 05:47:01;;;;;;;;;;;;;;;4.60;60.56;101384.34;4967122;28;19919;-83
2023/01/14 05:49:45;;;;;;;;;;;;;;;4.63;60.34;101384.63;4977491;28;19914;-84
2023/01/14 05:52:30;;;;;;;;;;;;;;;4.80;60.08;101383.66;4974774;29;19919;-82
2023/01/14 05:55:14;;;;;;;;;;;;;;;4.75;60.25;101387.16;4971118;29;19899;-83
2023/01/14 05:58:00;;;;;;;;;;;;;;;4.70;60.72;101392.50;4988243;28;19914;-83
2023/01/14 06:06:52;;;;;;;;;;;;;;;4.67;59.82;101395.72;4956741;28;19915;-83
2023/01/14 06:09:37;;;;;;;;;;;;;;;4.59;60.36;101405.09;4983581;28;19922;-81
2023/01/14 06:12:33;;;;;;;;;;;;;;;4.57;60.61;101409.13;4971202;29;19918;-84
2023/01/14 06:15:18;;;;;;;;;;;;;;;4.61;60.71;101412.91;4971192;29;19914;-83
2023/01/14 06:18:13;;;;;;;;;;;;;;;4.69;60.09;101420.50;4971175;29;19914;-83
2023/01/14 06:20:59;;;;;;;;;;;;;;;4.37;60.95;101411.66;4983090;28;19915;-84
2023/01/14 06:23:44;;;;;;;;;;;;;;;4.46;61.60;101418.19;4971368;29;19914;-84
2023/01/14 06:26:29;;;;;;;;;;;;;;;4.67;61.21;101418.06;4948723;29;19915;-83
2023/01/14 06:29:14;;;;;;;;;;;;;;;4.77;61.03;101425.44;4952251;29;20406;-81
2023/01/14 06:31:58;;;;;;;;;;;;;;;4.64;61.84;101432.06;4956068;29;19923;-82
2023/01/14 06:34:43;;;;;;;;;;;;;;;4.87;60.92;101428.19;4971444;28;19914;-82
2023/01/14 06:37:27;;;;;;;;;;;;;;;4.78;62.06;101435.09;4969907;28;19914;-83
2023/01/14 06:40:12;;;;;;;;;;;;;;;4.57;61.37;101439.53;4965721;28;19915;-83
2023/01/14 06:42:57;;;;;;;;;;;;;;;4.69;61.62;101447.44;4975701;28;19915;-82
2023/01/14 06:45:41;;;;;;;;;;;;;;;4.96;62.56;101453.56;4971612;28;19918;-82
2023/01/14 06:48:26;;;;;;;;;;;;;;;4.83;60.96;101463.97;4974562;28;20409;-81
2023/01/14 06:51:12;;;;;;;;;;;;;;;5.02;61.08;101468.72;4972481;28;20394;-80
2023/01/14 06:53:57;;;;;;;;;;;;;;;4.67;60.70;101469.25;4970634;29;19919;-81
2023/01/14 06:56:42;;;;;;;;;;;;;;;4.35;62.34;101475.69;4954771;29;19914;-81
2023/01/14 06:59:27;;;;;;;;;;;;;;;4.32;61.99;101470.84;4951725;29;19915;-81
2023/01/14 07:02:12;;;;;;;;;;;;;;;4.21;61.83;101478.00;4950807;29;19918;-79
2023/01/14 07:04:57;;;;;;;;;;;;;;;4.34;61.46;101485.66;4968297;28;19914;-79
2023/01/14 07:07:43;;;;;;;;;;;;;;;4.29;61.74;101482.91;4977157;28;19919;-79
2023/01/14 07:10:28;;;;;;;;;;;;;;;4.16;62.15;101483.34;4965139;28;19914;-79
2023/01/14 07:13:12;;;;;;;;;;;;;;;4.32;61.97;101476.22;4966351;29;19918;-78
2023/01/14 07:15:57;;;;;;;;;;;;;;;4.58;61.23;101472.66;4980245;28;19914;-78
2023/01/14 07:18:42;;;;;;;;;;;;;;;4.54;61.82;101475.06;4967773;28;19915;-79
2023/01/14 07:21:26;;;;;;;;;;;;;;;4.53;61.88;101472.63;4955464;29;19914;-79
2023/01/14 07:24:11;;;;;;;;;;;;;;;4.47;61.93;101471.75;4982814;28;19921;-79
2023/01/14 07:26:55;;;;;;;;;;;;;;;4.45;62.03;101465.03;4967579;28;19914;-80
2023/01/14 07:29:40;;;;;;;;;;;;;;;4.54;62.19;101461.59;4964863;28;19915;-80
2023/01/14 07:32:25;;;;;;;;;;;;;;;4.64;62.45;101467.06;4983920;28;19926;-80
2023/01/14 07:35:10;;;;;;;;;;;;;;;4.44;62.78;101476.84;4970989;28;19914;-80
2023/01/14 07:37:55;;;;;;;;;;;;;;;4.53;62.67;101486.91;4980153;28;19918;-80
2023/01/14 07:40:40;;;;;;;;;;;;;;;4.63;62.92;101497.75;4972550;28;19914;-79
2023/01/14 07:43:24;;;;;;;;;;;;;;;4.80;61.75;101502.22;4975193;28;19918;-79
2023/01/14 07:46:09;;;;;;;;;;;;;;;4.60;62.58;101497.47;4970586;28;19922;-81
2023/01/14 07:48:53;;;;;;;;;;;;;;;4.77;62.15;101514.34;4971630;28;19914;-79
2023/01/14 07:51:38;;;;;;;;;;;;;;;4.71;62.08;101515.34;4994502;28;19914;-80
2023/01/14 07:54:24;;;;;;;;;;;;;;;4.77;61.76;101518.91;4982114;28;19928;-82
2023/01/14 07:57:10;;;;;;;;;;;;;;;4.85;61.88;101521.94;4975318;28;19918;-80
2023/01/14 07:59:54;;;;;;;;;;;;;;;4.80;62.10;101527.28;4983400;28;19914;-78
2023/01/14 08:02:39;;;;;;;;;;;;;;;5.12;61.54;101529.97;4970172;28;20009;-80
2023/01/14 08:05:24;;;;;;;;;;;;;;;5.36;60.98;101522.28;4966749;28;19915;-79
2023/01/14 08:08:08;;;;;;;;;;;;;;;5.51;60.67;101523.19;4974251;28;19914;-79
2023/01/14 08:10:53;;;;;;;;;;;;;;;5.45;61.29;101536.91;4966071;29;20370;-79
2023/01/14 08:13:37;;;;;;;;;;;;;;;5.43;61.52;101544.47;4961866;29;19918;-80
2023/01/14 08:16:22;;;;;;;;;;;;;;;5.23;62.53;101555.13;4964308;28;19914;-80
2023/01/14 08:19:07;;;;;;;;;;;;;;;5.40;61.95;101555.75;4982502;28;19915;-80
2023/01/14 08:21:51;;;;;;;;;;;;;;;5.54;62.63;101556.91;4968680;28;19915;-79
2023/01/14 08:24:36;;;;;;;;;;;;;;;5.54;63.38;101568.53;4974391;28;19914;-79
2023/01/14 08:27:20;;;;;;;;;;;;;;;5.57;63.98;101567.19;4984259;28;19915;-79
2023/01/14 08:30:05;;;;;;;;;;;;;;;5.60;63.96;101567.47;4967277;28;20310;-79
2023/01/14 08:32:50;;;;;;;15.15;7.85;;;;;;;5.83;63.93;101571.66;4958582;28;20439;-83
2023/01/14 08:35:39;;;;;;;15.50;7.60;;;;;;;5.88;63.53;101579.00;4967391;28;20050;-86
2023/01/14 08:38:24;;;;;;;11.40;6.05;;;;;;;5.74;65.00;101581.31;4952194;29;20046;-86
2023/01/14 08:41:11;;;;;;;10.57;6.20;;;;;;;5.70;65.70;101593.72;4981001;28;20058;-82
2023/01/14 08:43:56;;;;;;;37.25;14.07;;;;;;;6.19;64.95;101596.97;4960922;29;20062;-82
2023/01/14 08:46:42;;;;;;;42.78;14.40;;;;;;;6.15;65.31;101605.84;4971962;28;20062;-80
2023/01/14 08:49:28;;;;;;;15.18;6.18;;;;;;;5.98;67.33;101600.66;4964345;28;20046;-82
2023/01/14 08:52:13;;;;;;;24.20;6.88;;;;;;;6.21;65.88;101599.38;4956444;29;20074;-81
2023/01/14 08:54:58;;;;;;;10.60;5.95;;;;;;;5.88;67.13;101606.81;4944000;29;20058;-82
2023/01/14 08:57:43;;;;;;;19.15;5.47;;;;;;;6.03;67.70;101605.25;4965021;28;20050;-80
2023/01/14 09:00:28;;;;;;;19.95;6.10;;;;;;;6.51;65.89;101615.69;4961737;29;20410;-82
2023/01/14 09:03:13;;;;;;;10.20;5.93;;;;;;;6.37;66.03;101609.97;4962946;29;20615;-80
2023/01/14 09:05:58;;;;;;;15.60;7.67;;;;;;;6.66;64.65;101604.09;4965837;28;20058;-80
2023/01/14 09:17:47;;;;;;;14.98;7.18;;;;;;;7.16;64.03;101597.97;4951901;28;20054;-80
2023/01/14 09:20:35;;;;;;;22.77;9.10;;;;;;;7.27;63.50;101600.38;4961242;28;20045;-83
2023/01/14 09:23:20;;;;;;;15.73;6.15;;;;;;;7.21;62.69;101608.78;4975097;28;20112;-82
2023/01/14 09:26:05;;;;;;;8.95;5.00;;;;;;;7.42;60.02;101615.78;4958477;28;20086;-83
2023/01/14 09:28:50;;;;;;;11.85;4.57;;;;;;;7.51;60.19;101624.19;4972657;28;20414;-82
2023/01/14 09:31:35;;;;;;;12.10;6.00;;;;;;;7.51;60.58;101624.19;4948695;28;20047;-83
2023/01/14 09:34:21;;;;;;;12.48;6.07;;;;;;;7.70;60.03;101628.75;4953234;29;20124;-81
2023/01/14 09:37:06;;;;;;;12.95;8.38;;;;;;;7.68;60.19;101635.50;4968209;28;20508;-82
2023/01/14 09:39:51;;;;;;;12.27;6.40;;;;;;;7.65;60.88;101641.50;4971722;28;20583;-81
2023/01/14 09:42:42;;;;;;;17.55;8.65;;;;;;;7.96;60.90;101636.81;4954609;28;20047;-83
2023/01/14 09:45:34;;;;;;;16.35;9.05;;;;;;;8.16;60.38;101637.59;4952499;29;20059;-82
2023/01/14 09:48:22;;;;;;;17.35;8.48;;;;;;;8.12;59.84;101635.69;4965775;28;20050;-83
2023/01/14 09:51:16;;;;;;;13.70;7.07;;;;;;;8.05;60.25;101635.97;4967646;28;20058;-83
2023/01/14 09:54:25;;;;;;;15.80;7.72;;;;;;;8.04;60.35;101638.97;4977817;28;20050;-81
2023/01/14 09:57:10;;;;;;;12.88;5.90;;;;;;;8.06;59.54;101639.50;4955864;28;20165;-82
2023/01/14 10:00:20;;;;;;;9.60;6.13;;;;;;;8.18;58.24;101640.81;4971174;28;20046;-82
2023/01/14 10:03:32;;;;;;;12.02;6.28;;;;;;;8.15;58.93;101635.13;4943002;29;20043;-82
2023/01/14 10:06:17;;;;;;;9.73;5.65;;;;;;;8.08;58.58;101623.78;4951502;29;20055;-81
2023/01/14 10:09:09;;;;;;;12.50;6.43;;;;;;;8.00;58.97;101627.06;4953022;29;20422;-81
2023/01/14 10:11:55;;;;;;;9.63;5.82;;;;;;;8.12;59.19;101635.69;4981605;28;20050;-82
2023/01/14 10:14:49;;;;;;;10.80;6.45;;;;;;;8.31;57.86;101623.19;4975400;28;20419;-82
2023/01/14 10:17:37;;;;;;;11.95;6.35;;;;;;;8.37;57.55;101627.50;4981468;28;20046;-80
2023/01/14 10:20:25;;;;;;;13.85;5.90;;;;;;;8.26;57.81;101625.88;4970531;28;20054;-81
2023/01/14 10:23:21;;;;;;;11.93;6.72;;;;;;;8.46;57.80;101617.69;4969848;29;20050;-82
2023/01/14 10:26:18;;;;;;;11.38;7.05;;;;;;;8.43;57.68;101618.25;4974762;28;20123;-82
2023/01/14 10:29:20;;;;;;;17.05;7.18;;;;;;;8.56;57.40;101614.13;4978191;28;20053;-82
2023/01/14 10:32:08;;;;;;;10.63;6.30;;;;;;;8.50;57.18;101609.81;4976520;28;20046;-81
2023/01/14 10:34:55;;;;;;;9.43;5.43;;;;;;;8.68;57.26;101613.78;4973015;28;20525;-81
2023/01/14 10:37:40;;;;;;;12.70;6.38;;;;;;;8.79;56.44;101615.31;4968461;28;20054;-82
2023/01/14 10:40:28;;;;;;;10.13;6.57;;;;;;;8.84;55.74;101609.88;4980882;28;20059;-82
2023/01/14 10:43:35;;;;;;;14.93;6.00;;;;;;;8.88;56.15;101610.94;4967109;28;20058;-81
2023/01/14 10:46:21;;;;;;;10.57;5.57;;;;;;;8.99;55.31;101605.16;4956024;29;20522;-82
2023/01/14 10:49:17;;;;;;;11.65;6.72;;;;;;;9.02;55.84;101595.66;4973672;28;20679;-82
2023/01/14 10:52:02;;;;;;;;;;;;;;;9.04;55.54;101588.03;4971485;28;20521;-82
2023/01/14 10:55:14;;;;;;;11.52;6.03;;;;;;;9.01;55.54;101573.13;4981976;28;19918;-82
2023/01/14 10:58:01;;;;;;;8.75;5.30;;;;;;;9.10;55.74;101565.19;4963101;29;20071;-82
2023/01/14 11:00:50;;;;;;;10.77;6.15;;;;;;;9.27;54.76;101562.06;4948538;28;20046;-82
2023/01/14 11:03:40;;;;;;;8.27;5.43;;;;;;;9.49;54.71;101561.59;4979312;28;20047;-82
2023/01/14 11:06:29;;;;;;;11.30;6.45;;;;;;;9.43;54.51;101558.13;4962931;28;20042;-81
2023/01/14 11:09:26;;;;;;;12.65;5.68;;;;;;;9.56;55.11;101543.84;4979697;28;20599;-81
2023/01/14 11:12:25;;;;;;;9.23;6.03;;;;;;;9.84;53.99;101542.19;4961353;28;20051;-82
2023/01/14 11:15:33;;;;;;;10.57;5.78;;;;;;;9.82;54.76;101547.91;4986418;28;20184;-81
2023/01/14 11:18:18;;;;;;;8.55;5.45;;;;;;;9.99;53.44;101555.59;4984232;28;20066;-82
2023/01/14 11:21:20;;;;;;;6.28;4.30;;;;;;;10.08;53.56;101548.41;4972614;28;20085;-82
2023/01/14 11:24:37;;;;;;;8.55;6.03;;;;;;;10.05;53.33;101540.84;4979822;28;20042;-83
2023/01/14 11:27:26;;;;;;;9.00;5.45;;;;;;;10.07;52.95;101533.19;4977215;28;20055;-81
2023/01/14 11:30:20;;;;;;;7.35;5.20;;;;;;;10.21;52.49;101522.44;4954278;29;20050;-82
2023/01/14 11:33:05;;;;;;;9.48;6.30;;;;;;;10.27;52.72;101516.66;4964717;28;20047;-82
2023/01/14 11:35:54;;;;;;;5.20;3.97;;;;;;;10.28;52.81;101515.56;4973060;28;20062;-83
2023/01/14 11:38:46;;;;;;;9.63;5.65;;;;;;;10.48;52.60;101491.88;4977362;28;20051;-82
2023/01/14 11:41:33;;;;;;;11.63;6.28;;;;;;;10.44;53.45;101478.06;4960870;28;20051;-81
2023/01/14 11:44:22;;;;;;;11.13;6.43;;;;;;;10.32;54.33;101472.28;4981044;28;20028;-83
2023/01/14 11:47:13;;;;;;;9.20;5.88;;;;;;;10.23;53.98;101469.41;4965551;28;20054;-82
2023/01/14 11:50:20;;;;;;;10.27;6.03;;;;;;;10.40;53.80;101473.53;4981159;28;20053;-82
2023/01/14 11:53:06;;;;;;;9.88;5.60;;;;;;;10.46;54.13;101472.34;4959344;29;20055;-83
2023/01/14 11:55:56;;;;;;;10.55;6.22;;;;;;;10.57;54.00;101463.72;4967178;28;20415;-83
2023/01/14 11:58:41;;;;;;;11.10;6.00;;;;;;;10.56;55.12;101453.16;4962845;29;20050;-81
2023/01/14 12:01:37;;;;;;;10.60;5.10;;;;;;;10.49;55.07;101452.72;4975548;28;20047;-81
2023/01/14 12:04:28;;;;;;;8.57;5.55;;;;;;;10.56;55.08;101455.88;4950612;28;20055;-80
2023/01/14 12:07:35;;;;;;;12.27;6.05;;;;;;;10.50;55.73;101454.34;4956295;29;20051;-80
2023/01/14 12:10:23;;;;;;;9.38;5.32;;;;;;;10.68;56.32;101462.44;4980849;28;20058;-80
2023/01/14 12:16:52;;;;;;;11.85;6.15;;;;;;;10.91;55.56;101447.13;4982804;28;20058;-80
2023/01/14 12:19:40;;;;;;;8.88;5.90;;;;;;;10.99;56.87;101440.97;4966641;29;20038;-82
2023/01/14 12:22:38;;;;;;;12.48;5.80;;;;;;;10.97;57.54;101445.09;4962138;29;20135;-82
2023/01/14 12:25:30;;;;;;;9.48;5.72;;;;;;;11.15;57.18;101453.19;4965881;28;20039;-83
2023/01/14 12:28:39;;;;;;;8.13;5.35;;;;;;;11.43;57.16;101443.09;4985400;28;20071;-83
2023/01/14 12:31:33;;;;;;;12.57;5.43;;;;;;;11.87;56.20;101434.34;4970598;29;20029;-84
2023/01/14 12:34:34;;;;;;;8.57;5.90;;;;;;;11.80;56.85;101435.84;4985989;28;20043;-83
2023/01/14 12:37:26;;;;;;;11.57;4.80;;;;;;;12.05;55.95;101423.56;4984375;28;20050;-82
2023/01/14 12:46:43;;;;;;;10.27;5.63;;;;;;;12.37;56.17;101417.91;4960499;29;20107;-81
2023/01/14 12:49:28;;;;;;;9.10;5.60;;;;;;;12.94;54.87;101410.72;4966189;29;20054;-83
2023/01/14 12:52:22;;;;;;;;;;;;;;;11.96;57.00;101397.06;4972557;28;20054;-83
2023/01/14 12:55:15;;;;;;;10.60;5.32;;;;;;;11.97;57.90;101395.94;4962789;28;20305;-81
2023/01/14 12:58:03;;;;;;;9.68;5.53;;;;;;;12.07;57.97;101396.81;4949129;28;20039;-81
2023/01/14 13:00:53;;;;;;;8.73;5.18;;;;;;;11.72;58.83;101395.69;4974355;28;20054;-82
2023/01/14 13:03:46;;;;;;;8.93;4.80;;;;;;;11.70;58.60;101400.63;4970744;28;20042;-82
2023/01/14 13:06:35;;;;;;;8.05;5.32;;;;;;;12.13;58.37;101406.50;4974232;28;20062;-83
2023/01/14 13:09:26;;;;;;;8.98;5.63;;;;;;;14.28;53.24;101399.91;4945479;29;20050;-82
2023/01/14 13:12:20;;;;;;;;;;;;;;;17.40;44.76;101412.00;4954014;29;20046;-83
2023/01/14 13:15:23;;;;;;;;;;;;;;;19.03;40.23;101411.25;4954151;29;19918;-82
2023/01/14 13:18:27;;;;;;;;;;;;;;;18.97;40.30;101412.66;4958005;28;19915;-82
2023/01/14 13:21:31;;;;;;;;;;;;;;;18.85;40.19;101405.25;4957193;29;19915;-82
2023/01/14 13:24:25;;;;;;;;;;;;;;;18.74;40.26;101387.66;4955387;29;19915;-82
2023/01/14 13:27:29;;;;;;;;;;;;;;;18.90;39.77;101396.72;4969600;28;19914;-82
2023/01/14 13:30:16;;;;;;;;;;;;;;;19.41;39.14;101400.34;4972214;28;19914;-82
2023/01/14 13:33:01;;;;;;;;;;;;;;;19.55;38.82;101402.69;4959385;28;19922;-82
2023/01/14 13:36:06;;;;;;;;;;;;;;;18.86;39.97;101384.00;4959721;28;19915;-83
2023/01/14 13:38:56;;;;;;;;;;;;;;;19.77;38.77;101384.66;4953031;29;19918;-83
2023/01/14 13:41:43;;;;;;;;;;;;;;;18.56;40.41;101367.91;4979962;28;19914;-83
2023/01/14 13:44:28;;;;;;;;;;;;;;;18.80;40.07;101367.75;4966156;29;19914;-83
2023/01/14 13:47:30;;;;;;;;;;;;;;;19.83;38.01;101370.22;4960283;29;19918;-85
2023/01/14 13:50:23;;;;;;;;;;;;;;;18.35;41.59;101370.84;4958994;29;19910;-85
2023/01/14 13:53:08;;;;;;;;;;;;;;;18.33;41.62;101362.16;4973103;28;19914;-85
2023/01/14 13:55:57;;;;;;;;;;;;;;;17.78;42.97;101354.66;4954294;28;19915;-85
2023/01/14 13:58:48;;;;;;;;;;;;;;;17.10;44.73;101354.50;4968474;28;19915;-85
2023/01/14 14:01:45;;;;;;;;;;;;;;;17.75;43.43;101347.13;4952161;29;19915;-84
2023/01/14 14:04:48;;;;;;;;;;;;;;;19.14;40.89;101340.63;4952527;29;19914;-86
2023/01/14 14:07:45;;;;;;;;;;;;;;;18.63;41.36;101346.06;4969364;28;19919;-86
2023/01/14 14:11:05;;;;;;;;;;;;;;;17.93;42.61;101342.91;4982073;28;19914;-86
2023/01/14 14:14:07;;;;;;;;;;;;;;;16.46;46.44;101334.22;4961366;29;19926;-87
2023/01/14 14:16:55;;;;;;;;;;;;;;;16.14;47.79;101341.34;4976252;28;19915;-85
2023/01/14 14:19:40;;;;;;;;;;;;;;;16.30;46.93;101338.78;4966517;28;19915;-85
2023/01/14 14:22:34;;;;;;;;;;;;;;;15.66;47.93;101339.16;4982413;28;19914;-87
2023/01/14 14:25:24;;;;;;;;;;;;;;;15.15;49.60;101341.06;4962283;29;20329;-86
2023/01/14 14:28:17;;;;;;;;;;;;;;;14.15;52.76;101348.94;4982109;28;19918;-85
2023/01/14 14:31:06;;;;;;;;;;;;;;;14.40;52.58;101331.69;4981087;28;20290;-86
2023/01/14 14:33:59;;;;;;;;;;;;;;;14.47;52.52;101331.22;4968155;28;19923;-85
2023/01/14 14:36:46;;;;;;;;;;;;;;;13.61;54.79;101304.72;4964257;28;19921;-85
2023/01/14 14:39:32;;;;;;;;;;;;;;;13.21;55.82;101300.47;4979244;28;19914;-84
2023/01/14 14:42:17;;;;;;;;;;;;;;;13.38;55.75;101311.44;4956850;28;19915;-85
2023/01/14 14:45:01;;;;;;;;;;;;;;;13.62;55.18;101309.06;4983773;28;19914;-85